Video statistics

Date Title
2010-01-04 It Hurts In My Toof: The 2010 Rules 03:25 316,617 6,442 72 1,466 4,228
2010-01-06 15 Hours in Target! 03:37 1,333,288 23,373 292 2,547 2,336
2010-01-08 GUS HAS NO FUZZ! 02:38 252,514 8,418 76 633 3,068
2010-01-11 Ecosystem Services 101 with Hank 03:53 169,744 4,889 64 643 4,957
2010-01-14 Froghoppin' with Gatsby 03:58 539,149 14,467 120 1,383 5,631
2010-01-15 Introduction to Chemistry with Hank 04:00 216,104 5,989 137 1,770 5,392
2010-01-18 Fatherhood 02:55 521,687 14,577 114 2,317 3,588
2010-01-20 OMG MY BROTHER HAD A BABY 03:22 830,469 22,181 536 3,206 3,088
2010-01-22 ThisIsNotJohn 03:16 306,281 9,776 227 1,616 3,381
2010-01-26 Name My Dog! 04:01 361,690 5,886 107 3,044 4,505
2010-01-27 Boobs and the iPad 03:57 261,526 5,249 346 826 5,167
2010-01-28 RIP JD Salinger 01:17 267,946 6,202 70 709 1,616
2010-01-29 An Extremely Brief History of Superbowl Commercials 02:49 128,390 1,566 19 176 3,410
2010-01-29 The iPad and Dolphin Murder 03:57 387,801 5,606 265 1,282 4,755
2010-02-01 Writing as a profession 03:38 299,492 5,837 137 997 3,902
2010-02-04 Win The Awesomest Prizes EVAR! 03:45 112,717 3,416 48 469 4,597
2010-02-05 DARE TO SUCK 03:56 287,318 6,215 145 812 4,538
2010-02-06 Truth or Fail: SUPERBOWL 01:30 149,350 1,569 117 191 1,131
2010-02-08 Hypocrisy: All They Want is Money 03:59 1,526,931 32,840 1,062 3,661 4,401
2010-02-10 HOW TO GET AN AGENT 03:51 164,733 4,502 81 760 4,767
2010-02-12 Google Search Stories: Harry Potter 02:44 459,945 8,794 269 871 1,085
2010-02-16 Hello Baby!! 03:44 1,137,410 20,736 173 2,326 4,473
2010-02-17 WRONG WRONG WRONG 03:57 587,158 18,326 152 3,213 4,665
2010-02-19 Henry's Pee and My Gut 03:15 470,808 18,682 152 1,340 3,879
2010-02-23 TWO HUNDRED THOUSAND!! 04:01 157,766 7,376 79 5,289 4,801
2010-02-24 JOHN GREEN IS FAT. 02:25 672,214 15,988 152 1,872 2,844
2010-02-27 Ningmaster Tom 03:55 148,650 6,043 60 994 4,529
2010-03-02 The Marriage Ref SUCKS 03:08 229,070 9,894 111 1,510 4,051
2010-03-03 VidCon Schedule Spectacular! 03:57 107,307 3,398 55 496 4,979
2010-03-05 Red Green, the Nintendo, and HANK 03:06 368,271 10,664 100 1,562 3,753
2010-03-08 GIGANTIC CHICKEN EGG!! 03:36 364,623 11,482 379 1,112 3,864
2010-03-11 New Tour! New Book! (Remember Books?) Your Q's A'ed! 03:15 180,608 6,570 55 4,117 4,125
2010-03-12 Peeing, Pooping, Prescription Drugs, and Ramen Noodle Fires 03:31 406,319 7,849 111 907 4,445
2010-03-16 Cute OVERLOAD: The Ultimate Concern Edition 03:14 1,006,043 31,339 162 2,956 3,931
2010-03-17 Side-Boob is Not my Ultimate Concern 04:00 364,919 6,961 100 810 4,590
2010-03-20 Foreign John Green Books and the Ultimate Concern 03:38 359,917 10,998 99 1,374 4,616
2010-03-22 Top 10 Weirdest Diseases 04:00 1,511,473 21,034 548 5,343 4,632
2010-03-24 Top 10 Animal POWER MOVES 03:45 10,851,768 42,375 12,401 7,595 4,535
2010-03-26 Top 10 Freaking Amazing Explosions 03:59 4,712,479 17,179 8,142 5,320 4,313
2010-03-29 Quotations (And Holden Hats) 02:48 444,990 8,732 91 6,806 4,117
2010-03-31 Having a bad day on Chat Roulette 03:59 555,908 15,033 212 1,738 3,106
2010-04-02 Will Grayson, Will Grayson 03:34 323,604 10,072 75 2,370 4,573
2010-04-05 Google in your Brain 03:59 348,235 7,142 225 1,945 4,710
2010-04-07 Shmancy Hotel Room Is Shmancy 03:00 336,122 6,059 37 1,738 4,251
2010-04-09 Why is the Sky Blue and Other Questions Answered 03:58 401,462 10,255 98 1,776 5,489
2010-04-12 On the Separation of Conjoined Twins 03:16 304,977 5,691 61 1,291 4,772
2010-04-15 Fun is Important. Being Serious Isn't 02:26 274,518 7,354 72 1,151 3,164
2010-04-16 The Patron Saint of Youtube 03:11 282,107 5,514 74 1,041 4,046
2010-04-20 I Shall BLOW YOUR MIND 03:22 837,338 14,753 134 2,659 3,740
2010-04-21 The Insurrection of Subjugated Knowledges 03:03 212,850 3,998 34 1,166 4,238
2010-04-24 VidCon: User Generated Conference 03:32 122,653 3,068 48 615 4,211
2010-04-27 Nerdfighters, They Named a PLANE After Us 02:45 348,769 6,417 36 918 3,496
2010-04-28 Who's in Your Hug Bucket? 03:49 209,189 4,489 35 2,245 4,157
2010-04-30 The Greek Debt Crisis Explained in Four Minutes 03:49 1,244,289 12,486 900 2,752 5,108
2010-05-04 Net Neutrality in the Shower 04:00 246,183 8,514 104 864 4,417
2010-05-05 HANKO DE MAYO!!!!11!! 11:54 171,771 6,366 45 1,391 9,448
2010-05-07 How to Live Forever 04:00 277,672 5,611 54 1,475 5,487
2010-05-10 Advice on Dumb Boyfriends, Going to College, and More 03:27 782,643 15,662 85 2,373 4,720
2010-05-12 Hank Raps about w00tstock...for real 03:15 184,193 7,552 163 960 3,696
2010-05-14 Advice on First Kisses, Stalkers, College Majors, and More 03:59 1,263,084 23,093 225 1,993 5,602
2010-05-17 My YouTube Story is Short 02:14 170,026 3,817 48 1,325 2,958
2010-05-19 Adorable Baby Is Adorable 02:50 1,540,714 55,876 362 6,230 2,289
2010-05-21 How to Make a Website in Four Minutes 03:45 422,623 6,641 242 1,261 5,364
2010-05-24 How To Make a Baby 02:22 2,167,356 20,004 971 2,209 2,958
2010-05-26 How to Be Green Without Being a Prick 04:00 469,964 12,891 210 1,652 4,798
2010-05-28 How To Do Everything 03:16 514,268 10,216 102 953 4,243
2010-05-31 Farmville!!!!! A Song 03:18 245,102 5,596 279 594 3,752
2010-06-02 The Case of the Poopy Nintendo 03:31 408,346 9,732 187 1,416 4,403
2010-06-05 YouTube vs. Viacom The Battle Explained 03:59 323,393 8,782 210 1,054 5,164
2010-06-07 Viacom PWNED on Piracy 03:27 448,355 10,318 97 1,549 3,963
2010-06-09 Should We Sue Viacom? 03:48 288,276 6,975 61 1,237 4,707
2010-06-11 Mmmm....PARTS 02:52 189,042 3,742 35 922 3,496
2010-06-14 Be The Change - vlogbrothers 03:29 180,893 6,212 175 1,114 4,103
2010-06-16 In Defense of Contemporary Art 02:36 196,187 4,599 59 890 3,210
2010-06-19 You just lost THE GAME! 03:43 502,179 14,263 543 5,315 4,538
2010-06-21 You're Gonna Die 03:32 442,220 8,081 102 1,244 4,231
2010-06-24 GOOOOOOOL!!!! 03:41 215,929 4,882 246 1,595 3,861
2010-06-26 Book Nerd PARADISE 02:04 340,013 8,803 39 1,551 2,308
2010-06-29 Stabbed in the Brain: Phineas Gage 03:59 734,135 10,598 123 1,592 5,017
2010-06-30 Poopy Nintendo Mystery SOLVED WITH SCIENCE 03:38 416,942 8,698 95 1,478 4,608
2010-07-03 VidCon by the Numbers 03:43 153,657 3,200 68 668 3,701
2010-07-05 With Esther 03:32 369,634 9,612 43 979 4,178
2010-07-08 Los Angeles Earthquake at VidCon 04:00 207,619 3,467 54 712 4,468
2010-07-14 Top 10 VIDCON MOMENTS 03:50 303,958 8,618 80 1,734 4,092
2010-07-16 VidCon, Oil Spill, Punishments, Shane Dawson, and my Balls 03:53 214,623 6,174 72 1,049 3,994
2010-07-20 I Like Balls 02:35 266,733 6,828 79 961 3,050
2010-07-22 I Hung out with Snookie...Accidentally 04:00 767,004 14,939 250 2,077 4,579
2010-07-24 Grammar School with Snooki 03:36 1,144,074 19,630 390 2,962 4,556
2010-07-26 Hank's Life in a Day 03:46 540,661 9,820 66 1,075 4,604
2010-07-28 Umbrellas Amuse Me: Observations from One Day in Munich 03:44 395,081 13,180 64 897 4,608
2010-07-30 Demon Four Year Old 03:24 1,001,857 17,596 1,579 1,781 3,902
2010-08-02 I Love Hank: Esther Day 2010 03:33 330,023 9,085 50 1,882 4,407
2010-08-04 Family, Love and BISON ATTACKS! 03:48 306,854 6,447 58 750 4,802
2010-08-06 Looking for Alaska at My High School 03:41 686,393 22,883 84 2,434 4,938
2010-08-10 JOIN THE PEN15 CLUB!! 03:53 524,995 8,559 231 1,520 4,711
2010-08-11 College Advice From an Expert 04:00 956,479 18,018 96 2,304 5,396
2010-08-14 The Marvelous Mystery of The Dan 03:56 196,159 5,049 107 1,279 4,214
2010-08-16 Lust and Folly in London and Edinburgh 03:39 366,016 8,472 34 1,586 5,336
2010-08-19 Demon Four Year Old Interviewed 04:00 621,315 6,221 1,374 1,130 3,731
2010-08-20 The Fox Hat IS REAL, but Are Zombies People? 03:47 459,766 14,290 91 2,414 4,578
2010-08-22 Is Obama a Muslim? Examine the Evidence! 03:00 978,886 20,155 966 6,010 3,919
2010-08-24 Make-up Tutorial: Katniss Everdeen Look 03:46 741,565 21,812 169 4,472 4,538
2010-08-25 FRENCH THE LLAMA! John is 33! 05:56 257,759 8,068 66 2,779 4,136
2010-08-27 Rest In Awesome, Esther 03:19 629,914 25,086 210 3,091 3,992
2010-08-31 Thoughts from Places: The Centennial Valley 03:32 237,894 6,615 46 731 4,104
2010-09-02 Fitness for Nerds 09:24 847,076 33,708 228 6,342 7,939
2010-09-03 ANOTHER Oil Rig Explosion?! REALLY?! 03:59 305,013 5,707 215 2,370 5,096
2010-09-06 I HATE PENNIES!!!! (Also Nickels.) 03:57 1,726,061 34,517 516 6,491 4,749
2010-09-08 Where are the Space Aliens?! 03:56 337,066 6,895 144 3,731 4,766
2010-09-11 Giant Baby Attack 03:27 932,830 22,275 105 2,831 3,865
2010-09-14 Thoughts from Places: YouTube HQ 02:42 248,055 5,241 60 710 3,107
2010-09-16 Positive Pranking: The TP Edition 03:02 289,319 7,978 69 1,339 3,757
2010-09-17 Positive Prank Calls!! 03:33 693,860 17,896 280 1,770 4,106
2010-09-20 Life Is Like Pizza 03:48 632,476 19,477 144 2,560 4,922
2010-09-22 Non-VIrgin...a Lexical Gap? 03:40 763,839 12,427 82 2,232 4,534
2010-09-24 Dumping My 15-Year-Old Girlfriend 02:50 1,201,203 20,084 157 1,882 3,811
2010-09-28 Stop Embarrassing Yourself 03:54 1,268,458 49,142 419 14,338 4,196
2010-09-30 MY FRIEND CHESTER 03:19 300,782 7,406 30 4,933 4,473
2010-10-01 Supernote and Charlie's Birthday 03:24 267,364 4,755 63 1,127 3,790
2010-10-04 The Terrible Burden of Destiny: Chicago and Waupaca 02:40 302,372 10,731 44 1,232 3,326
2010-10-07 The Fermi Paradox: A Song 03:15 498,347 12,401 185 1,906 3,156
2010-10-08 GEEKING OUT Over Dying Declarations 03:06 458,352 18,000 54 3,067 4,700
2010-10-11 Like a Snake Swallowing an Egg: Thoughts from Florida 02:50 258,417 4,808 56 993 3,695
2010-10-13 On Hope and Chile 02:46 188,811 7,793 46 870 3,717
2010-10-15 TOP 7 FAILS OF HISTORY 03:12 1,563,273 27,153 475 4,077 3,433
2010-10-19 Giraffe Sex: A Terrifying Introduction to Nature at Work (and Play) 03:55 5,951,410 25,588 2,733 2,222 4,626
2010-10-21 Strange Charm: A Song about Quarks 02:33 1,982,103 38,330 235 7,252 3,106
2010-10-22 Making Adorable Music 02:38 575,130 20,514 95 1,956 2,725
2010-10-25 Rocky Horror + Glee = ? 04:00 392,850 6,896 151 3,404 4,239
2010-10-27 You Are Awesome 03:10 354,146 7,741 32 1,798 4,017
2010-10-30 Hank Has Questions 04:00 289,841 8,929 48 2,447 5,399
2010-11-01 Consider the Lemming 03:53 429,984 10,963 42 3,219 5,495
2010-11-03 Phineas Gage: A Song 04:01 340,018 6,294 89 1,019 3,934
2010-11-05 God and Grain: The French Revolution, Part I 05:35 704,112 14,085 109 2,181 7,072
2010-11-09 Probability 101 08:33 709,833 13,200 232 3,740 10,429
2010-11-11 Headless Monarchy: The French Revolution, Part II 06:05 487,087 9,090 50 1,025 6,915
2010-11-11 REIGN OF TERROR: The French Revolution, Part III 05:13 562,832 7,890 77 1,256 5,431
2010-11-13 Blood!!! 05:38 569,793 9,483 162 5,361 7,223
2010-11-15 Hey! You! Fix the Budget! 03:51 289,827 6,720 39 1,784 5,109
2010-11-18 HARRY POTTER SONG! 04:00 558,312 19,747 312 2,334 4,141
2010-11-19 I'm Not Going Down: Thoughts from Amsterdam 02:03 341,799 10,309 29 1,426 2,717
2010-11-22 Thoughts from Places: On a Horse 03:45 241,031 5,626 34 1,069 4,812
2010-11-24 Babies and Catacombs: VIENNA (Thoughts from Places) 03:16 297,946 7,424 29 1,103 3,928
2010-11-27 p4a, Space Pasta, and Giant Squids of Anger 03:50 333,858 11,496 38 1,337 5,123
2010-11-29 John and Hank: The Out-Takes 03:30 426,892 10,584 26 1,216 4,740
2010-11-30 Giant Tortoise Coitus 03:42 348,043 5,953 176 1,245 4,752
2010-12-02 Makin' Babies: A Song 03:20 326,355 5,742 165 1,548 3,895
2010-12-03 Giant Squids OF LOVE 03:21 342,450 6,928 60 1,203 4,096
2010-12-07 Tongue Twisters 04:35 331,950 10,355 66 2,422 5,874
2010-12-08 My Zombie Apocalypse Novella 03:46 257,329 9,317 77 1,718 4,508
2010-12-11 Project for Awesome and Thoughts from DC 03:43 187,979 4,039 48 548 4,495
2010-12-14 8 Things I Love 03:46 820,135 19,743 74 2,510 4,597
2010-12-16 Adult Female: A Song 03:31 293,712 7,926 175 1,049 2,406
2010-12-17 PROJECT FOR AWESOME 2010: Save the Children and Partners in Health 03:48 174,518 10,959 47 7,837 4,934
2010-12-21 Thoughts on the Project for Awesome 03:41 139,326 5,323 51 422 4,675
2010-12-22 I Was on Jeopardy!!!! 02:53 779,673 22,838 93 1,667 2,945
2010-12-28 To: You - - From: The Vlogbrothers 03:59 225,320 6,244 19 3,005 4,654
2010-12-30 Baby on the Road: Thoughts from Places 02:58 846,464 25,800 92 2,500 3,570
2010-12-31 Is Lady Gaga a Man? 03:18 700,923 22,491 174 3,416 4,448